sensor_id;sensor_type;location;lat;lon;timestamp;P1;durP1;ratioP1;P2;durP2;ratioP2
2035;SDS011;23642;42.658;23.350;2022-07-29T00:01:49;66.00;;;61.70;;
2035;SDS011;23642;42.658;23.350;2022-07-29T00:04:17;68.57;;;64.00;;
2035;SDS011;23642;42.658;23.350;2022-07-29T00:06:44;68.37;;;63.50;;
2035;SDS011;23642;42.658;23.350;2022-07-29T00:09:11;67.07;;;62.57;;
2035;SDS011;23642;42.658;23.350;2022-07-29T00:11:38;65.40;;;61.10;;
2035;SDS011;23642;42.658;23.350;2022-07-29T00:23:41;70.97;;;66.37;;
2035;SDS011;23642;42.658;23.350;2022-07-29T00:26:08;69.53;;;64.73;;
2035;SDS011;23642;42.658;23.350;2022-07-29T00:28:35;71.03;;;66.33;;
2035;SDS011;23642;42.658;23.350;2022-07-29T00:37:47;66.33;;;61.90;;
2035;SDS011;23642;42.658;23.350;2022-07-29T00:40:14;67.90;;;63.20;;
2035;SDS011;23642;42.658;23.350;2022-07-29T00:42:41;69.40;;;64.70;;
2035;SDS011;23642;42.658;23.350;2022-07-29T00:47:55;67.57;;;63.07;;
2035;SDS011;23642;42.658;23.350;2022-07-29T00:53:44;68.10;;;63.60;;
2035;SDS011;23642;42.658;23.350;2022-07-29T00:56:15;69.73;;;65.03;;
2035;SDS011;23642;42.658;23.350;2022-07-29T01:08:39;69.13;;;64.30;;
2035;SDS011;23642;42.658;23.350;2022-07-29T01:11:08;70.10;;;65.40;;
2035;SDS011;23642;42.658;23.350;2022-07-29T01:13:36;68.87;;;64.17;;
2035;SDS011;23642;42.658;23.350;2022-07-29T01:16:04;70.03;;;65.43;;
2035;SDS011;23642;42.658;23.350;2022-07-29T01:18:37;68.40;;;63.80;;
2035;SDS011;23642;42.658;23.350;2022-07-29T01:21:15;69.00;;;64.47;;
2035;SDS011;23642;42.658;23.350;2022-07-29T01:23:59;69.30;;;64.70;;
2035;SDS011;23642;42.658;23.350;2022-07-29T01:26:44;71.63;;;66.87;;
2035;SDS011;23642;42.658;23.350;2022-07-29T01:29:17;70.87;;;66.20;;
2035;SDS011;23642;42.658;23.350;2022-07-29T01:31:51;69.10;;;64.10;;
2035;SDS011;23642;42.658;23.350;2022-07-29T01:34:23;71.30;;;66.40;;
2035;SDS011;23642;42.658;23.350;2022-07-29T01:36:55;71.40;;;66.53;;
2035;SDS011;23642;42.658;23.350;2022-07-29T01:39:30;67.07;;;62.40;;
2035;SDS011;23642;42.658;23.350;2022-07-29T01:42:01;70.00;;;65.30;;
2035;SDS011;23642;42.658;23.350;2022-07-29T01:44:39;69.67;;;64.90;;
2035;SDS011;23642;42.658;23.350;2022-07-29T01:47:12;68.70;;;64.03;;
2035;SDS011;23642;42.658;23.350;2022-07-29T01:49:45;69.37;;;64.57;;
2035;SDS011;23642;42.658;23.350;2022-07-29T01:52:19;66.03;;;61.63;;
2035;SDS011;23642;42.658;23.350;2022-07-29T01:54:52;68.47;;;63.93;;
2035;SDS011;23642;42.658;23.350;2022-07-29T01:57:23;70.00;;;65.13;;
2035;SDS011;23642;42.658;23.350;2022-07-29T01:59:55;68.47;;;63.87;;
2035;SDS011;23642;42.658;23.350;2022-07-29T02:02:24;68.50;;;63.80;;
2035;SDS011;23642;42.658;23.350;2022-07-29T02:04:54;69.33;;;64.53;;
2035;SDS011;23642;42.658;23.350;2022-07-29T02:07:23;65.27;;;60.80;;
2035;SDS011;23642;42.658;23.350;2022-07-29T02:09:51;68.13;;;62.70;;
2035;SDS011;23642;42.658;23.350;2022-07-29T02:12:21;65.70;;;61.17;;
2035;SDS011;23642;42.658;23.350;2022-07-29T02:14:51;66.20;;;61.60;;
2035;SDS011;23642;42.658;23.350;2022-07-29T02:17:22;64.43;;;59.93;;
2035;SDS011;23642;42.658;23.350;2022-07-29T02:19:52;64.73;;;60.43;;
2035;SDS011;23642;42.658;23.350;2022-07-29T02:22:22;67.10;;;62.63;;
2035;SDS011;23642;42.658;23.350;2022-07-29T02:24:50;65.87;;;61.37;;
2035;SDS011;23642;42.658;23.350;2022-07-29T02:27:19;66.40;;;61.77;;
2035;SDS011;23642;42.658;23.350;2022-07-29T02:29:46;67.53;;;62.73;;
2035;SDS011;23642;42.658;23.350;2022-07-29T02:32:15;63.20;;;59.00;;
2035;SDS011;23642;42.658;23.350;2022-07-29T02:34:45;66.20;;;61.60;;
2035;SDS011;23642;42.658;23.350;2022-07-29T02:37:16;65.23;;;60.93;;
2035;SDS011;23642;42.658;23.350;2022-07-29T02:39:45;67.17;;;62.67;;
2035;SDS011;23642;42.658;23.350;2022-07-29T02:42:15;65.20;;;60.67;;
2035;SDS011;23642;42.658;23.350;2022-07-29T02:44:43;66.33;;;61.87;;
2035;SDS011;23642;42.658;23.350;2022-07-29T02:47:12;64.47;;;59.83;;
2035;SDS011;23642;42.658;23.350;2022-07-29T02:49:48;66.17;;;61.73;;
2035;SDS011;23642;42.658;23.350;2022-07-29T02:52:21;65.70;;;61.33;;
2035;SDS011;23642;42.658;23.350;2022-07-29T02:54:54;66.27;;;61.77;;
2035;SDS011;23642;42.658;23.350;2022-07-29T02:57:32;64.63;;;60.37;;
2035;SDS011;23642;42.658;23.350;2022-07-29T03:00:04;65.40;;;61.00;;
2035;SDS011;23642;42.658;23.350;2022-07-29T03:02:37;63.90;;;59.70;;
2035;SDS011;23642;42.658;23.350;2022-07-29T03:05:08;64.03;;;59.73;;
2035;SDS011;23642;42.658;23.350;2022-07-29T03:07:41;64.83;;;60.53;;
2035;SDS011;23642;42.658;23.350;2022-07-29T03:10:12;63.40;;;59.30;;
2035;SDS011;23642;42.658;23.350;2022-07-29T03:12:40;62.80;;;58.70;;
2035;SDS011;23642;42.658;23.350;2022-07-29T03:15:08;62.90;;;58.83;;
2035;SDS011;23642;42.658;23.350;2022-07-29T03:17:35;63.23;;;58.60;;
2035;SDS011;23642;42.658;23.350;2022-07-29T03:20:04;64.93;;;60.53;;
2035;SDS011;23642;42.658;23.350;2022-07-29T03:22:34;60.23;;;56.33;;
2035;SDS011;23642;42.658;23.350;2022-07-29T03:25:08;63.03;;;58.80;;
2035;SDS011;23642;42.658;23.350;2022-07-29T03:27:36;63.07;;;58.87;;
2035;SDS011;23642;42.658;23.350;2022-07-29T03:30:03;64.57;;;60.00;;
2035;SDS011;23642;42.658;23.350;2022-07-29T03:32:30;66.07;;;61.57;;
2035;SDS011;23642;42.658;23.350;2022-07-29T03:34:57;64.77;;;60.20;;
2035;SDS011;23642;42.658;23.350;2022-07-29T03:37:24;62.93;;;58.90;;
2035;SDS011;23642;42.658;23.350;2022-07-29T03:39:52;64.03;;;59.73;;
2035;SDS011;23642;42.658;23.350;2022-07-29T03:42:23;66.60;;;62.30;;
2035;SDS011;23642;42.658;23.350;2022-07-29T03:44:53;68.43;;;63.60;;
2035;SDS011;23642;42.658;23.350;2022-07-29T03:47:25;65.87;;;61.27;;
2035;SDS011;23642;42.658;23.350;2022-07-29T03:49:56;67.50;;;62.90;;
2035;SDS011;23642;42.658;23.350;2022-07-29T03:52:26;66.10;;;61.60;;
2035;SDS011;23642;42.658;23.350;2022-07-29T03:54:54;66.33;;;61.60;;
2035;SDS011;23642;42.658;23.350;2022-07-29T03:57:23;68.60;;;64.00;;
2035;SDS011;23642;42.658;23.350;2022-07-29T03:59:53;66.63;;;62.13;;
2035;SDS011;23642;42.658;23.350;2022-07-29T04:02:21;70.57;;;65.87;;
2035;SDS011;23642;42.658;23.350;2022-07-29T04:04:49;68.90;;;64.30;;
2035;SDS011;23642;42.658;23.350;2022-07-29T04:07:16;71.87;;;67.20;;
2035;SDS011;23642;42.658;23.350;2022-07-29T04:09:43;68.17;;;63.67;;
2035;SDS011;23642;42.658;23.350;2022-07-29T04:12:11;70.40;;;65.30;;
2035;SDS011;23642;42.658;23.350;2022-07-29T04:14:38;71.60;;;66.53;;
2035;SDS011;23642;42.658;23.350;2022-07-29T04:17:05;72.00;;;67.20;;
2035;SDS011;23642;42.658;23.350;2022-07-29T04:19:31;73.87;;;68.70;;
2035;SDS011;23642;42.658;23.350;2022-07-29T04:21:59;73.07;;;68.17;;
2035;SDS011;23642;42.658;23.350;2022-07-29T04:24:27;72.70;;;67.90;;
2035;SDS011;23642;42.658;23.350;2022-07-29T04:26:56;72.23;;;67.33;;
2035;SDS011;23642;42.658;23.350;2022-07-29T04:29:24;72.20;;;67.10;;
2035;SDS011;23642;42.658;23.350;2022-07-29T04:31:51;72.50;;;67.90;;
2035;SDS011;23642;42.658;23.350;2022-07-29T04:34:17;74.30;;;69.50;;
2035;SDS011;23642;42.658;23.350;2022-07-29T04:36:44;75.13;;;70.07;;
2035;SDS011;23642;42.658;23.350;2022-07-29T04:39:13;75.73;;;70.83;;
2035;SDS011;23642;42.658;23.350;2022-07-29T04:41:40;73.40;;;68.70;;
2035;SDS011;23642;42.658;23.350;2022-07-29T04:44:06;72.50;;;67.70;;
2035;SDS011;23642;42.658;23.350;2022-07-29T04:46:35;74.30;;;69.50;;
2035;SDS011;23642;42.658;23.350;2022-07-29T04:49:02;77.33;;;72.30;;
2035;SDS011;23642;42.658;23.350;2022-07-29T04:51:29;78.40;;;73.10;;
2035;SDS011;23642;42.658;23.350;2022-07-29T04:53:56;79.73;;;74.37;;
2035;SDS011;23642;42.658;23.350;2022-07-29T04:56:22;78.43;;;73.33;;
2035;SDS011;23642;42.658;23.350;2022-07-29T04:58:49;80.73;;;75.27;;
2035;SDS011;23642;42.658;23.350;2022-07-29T05:01:16;81.37;;;76.07;;
2035;SDS011;23642;42.658;23.350;2022-07-29T05:03:45;80.70;;;75.30;;
2035;SDS011;23642;42.658;23.350;2022-07-29T05:06:12;84.73;;;78.80;;
2035;SDS011;23642;42.658;23.350;2022-07-29T05:08:38;80.83;;;75.30;;
2035;SDS011;23642;42.658;23.350;2022-07-29T05:11:05;82.03;;;76.60;;
2035;SDS011;23642;42.658;23.350;2022-07-29T05:13:32;82.83;;;77.33;;
2035;SDS011;23642;42.658;23.350;2022-07-29T05:15:59;86.43;;;80.40;;
2035;SDS011;23642;42.658;23.350;2022-07-29T05:18:26;84.13;;;78.27;;
2035;SDS011;23642;42.658;23.350;2022-07-29T05:20:54;85.27;;;79.77;;
2035;SDS011;23642;42.658;23.350;2022-07-29T05:23:22;88.23;;;82.50;;
2035;SDS011;23642;42.658;23.350;2022-07-29T05:25:49;85.40;;;79.37;;
2035;SDS011;23642;42.658;23.350;2022-07-29T05:28:16;86.07;;;80.40;;
2035;SDS011;23642;42.658;23.350;2022-07-29T05:30:43;87.50;;;81.47;;
2035;SDS011;23642;42.658;23.350;2022-07-29T05:33:10;89.17;;;83.27;;
2035;SDS011;23642;42.658;23.350;2022-07-29T05:35:37;88.73;;;82.60;;
2035;SDS011;23642;42.658;23.350;2022-07-29T05:38:05;84.77;;;79.03;;
2035;SDS011;23642;42.658;23.350;2022-07-29T05:40:32;87.67;;;81.53;;
2035;SDS011;23642;42.658;23.350;2022-07-29T05:42:59;87.47;;;81.57;;
2035;SDS011;23642;42.658;23.350;2022-07-29T05:45:26;88.97;;;83.17;;
2035;SDS011;23642;42.658;23.350;2022-07-29T05:47:53;90.40;;;84.30;;
2035;SDS011;23642;42.658;23.350;2022-07-29T05:50:20;89.43;;;83.47;;
2035;SDS011;23642;42.658;23.350;2022-07-29T05:52:46;88.47;;;82.53;;
2035;SDS011;23642;42.658;23.350;2022-07-29T05:55:15;87.77;;;81.67;;
2035;SDS011;23642;42.658;23.350;2022-07-29T05:57:41;89.20;;;83.20;;
2035;SDS011;23642;42.658;23.350;2022-07-29T06:00:10;89.13;;;83.30;;
2035;SDS011;23642;42.658;23.350;2022-07-29T06:02:38;89.10;;;83.30;;
2035;SDS011;23642;42.658;23.350;2022-07-29T06:05:05;86.93;;;80.93;;
2035;SDS011;23642;42.658;23.350;2022-07-29T06:07:32;88.37;;;82.47;;
2035;SDS011;23642;42.658;23.350;2022-07-29T06:10:01;87.77;;;82.17;;
2035;SDS011;23642;42.658;23.350;2022-07-29T06:12:31;85.57;;;80.03;;
2035;SDS011;23642;42.658;23.350;2022-07-29T06:14:59;88.37;;;82.47;;
2035;SDS011;23642;42.658;23.350;2022-07-29T06:17:26;86.57;;;80.70;;
2035;SDS011;23642;42.658;23.350;2022-07-29T06:19:53;89.10;;;83.10;;
2035;SDS011;23642;42.658;23.350;2022-07-29T06:22:20;92.67;;;86.27;;
2035;SDS011;23642;42.658;23.350;2022-07-29T06:24:47;90.80;;;85.00;;
2035;SDS011;23642;42.658;23.350;2022-07-29T06:27:18;95.13;;;89.03;;
2035;SDS011;23642;42.658;23.350;2022-07-29T06:29:54;90.57;;;84.90;;
2035;SDS011;23642;42.658;23.350;2022-07-29T06:32:21;97.07;;;91.00;;
2035;SDS011;23642;42.658;23.350;2022-07-29T06:34:51;97.53;;;91.43;;
2035;SDS011;23642;42.658;23.350;2022-07-29T06:37:20;98.07;;;91.50;;
2035;SDS011;23642;42.658;23.350;2022-07-29T06:39:50;96.60;;;90.43;;
2035;SDS011;23642;42.658;23.350;2022-07-29T06:42:36;98.77;;;91.93;;
2035;SDS011;23642;42.658;23.350;2022-07-29T06:45:05;100.80;;;94.50;;
2035;SDS011;23642;42.658;23.350;2022-07-29T06:47:32;102.57;;;96.00;;
2035;SDS011;23642;42.658;23.350;2022-07-29T06:49:59;100.67;;;94.20;;
2035;SDS011;23642;42.658;23.350;2022-07-29T06:52:26;98.47;;;92.17;;
2035;SDS011;23642;42.658;23.350;2022-07-29T06:54:55;100.10;;;93.50;;
2035;SDS011;23642;42.658;23.350;2022-07-29T06:57:28;102.33;;;95.63;;
2035;SDS011;23642;42.658;23.350;2022-07-29T07:00:04;99.33;;;92.90;;
2035;SDS011;23642;42.658;23.350;2022-07-29T07:03:13;98.57;;;92.37;;
2035;SDS011;23642;42.658;23.350;2022-07-29T07:05:40;99.37;;;93.17;;
2035;SDS011;23642;42.658;23.350;2022-07-29T07:08:07;102.67;;;96.17;;
2035;SDS011;23642;42.658;23.350;2022-07-29T07:10:34;100.90;;;94.30;;
2035;SDS011;23642;42.658;23.350;2022-07-29T07:13:17;102.03;;;95.43;;
2035;SDS011;23642;42.658;23.350;2022-07-29T07:15:48;101.30;;;94.97;;
2035;SDS011;23642;42.658;23.350;2022-07-29T07:18:15;99.10;;;92.70;;
2035;SDS011;23642;42.658;23.350;2022-07-29T07:20:48;101.53;;;95.13;;
2035;SDS011;23642;42.658;23.350;2022-07-29T07:23:22;98.27;;;91.93;;
2035;SDS011;23642;42.658;23.350;2022-07-29T07:25:50;101.50;;;95.20;;
2035;SDS011;23642;42.658;23.350;2022-07-29T07:28:19;98.77;;;92.67;;
2035;SDS011;23642;42.658;23.350;2022-07-29T07:30:52;99.23;;;92.97;;
2035;SDS011;23642;42.658;23.350;2022-07-29T07:33:26;98.57;;;92.03;;
2035;SDS011;23642;42.658;23.350;2022-07-29T07:35:58;96.67;;;90.67;;
2035;SDS011;23642;42.658;23.350;2022-07-29T07:39:46;98.90;;;92.60;;
2035;SDS011;23642;42.658;23.350;2022-07-29T07:42:24;97.20;;;91.10;;
2035;SDS011;23642;42.658;23.350;2022-07-29T07:45:06;98.50;;;92.07;;
2035;SDS011;23642;42.658;23.350;2022-07-29T07:47:36;98.17;;;92.17;;
2035;SDS011;23642;42.658;23.350;2022-07-29T07:50:05;98.70;;;92.60;;
2035;SDS011;23642;42.658;23.350;2022-07-29T07:55:22;97.03;;;91.10;;
2035;SDS011;23642;42.658;23.350;2022-07-29T07:57:53;97.47;;;91.47;;
2035;SDS011;23642;42.658;23.350;2022-07-29T08:00:24;97.47;;;91.57;;
2035;SDS011;23642;42.658;23.350;2022-07-29T08:06:26;97.20;;;91.17;;
2035;SDS011;23642;42.658;23.350;2022-07-29T08:09:04;97.90;;;91.70;;
2035;SDS011;23642;42.658;23.350;2022-07-29T08:11:34;101.90;;;95.70;;
2035;SDS011;23642;42.658;23.350;2022-07-29T08:14:01;96.30;;;90.43;;
2035;SDS011;23642;42.658;23.350;2022-07-29T08:16:30;99.07;;;92.97;;
2035;SDS011;23642;42.658;23.350;2022-07-29T08:18:57;97.67;;;91.67;;
2035;SDS011;23642;42.658;23.350;2022-07-29T08:21:28;97.27;;;91.43;;
2035;SDS011;23642;42.658;23.350;2022-07-29T08:24:09;100.33;;;93.80;;
2035;SDS011;23642;42.658;23.350;2022-07-29T08:26:54;99.90;;;93.63;;
2035;SDS011;23642;42.658;23.350;2022-07-29T08:29:23;98.10;;;92.10;;
2035;SDS011;23642;42.658;23.350;2022-07-29T08:31:50;99.10;;;93.10;;
2035;SDS011;23642;42.658;23.350;2022-07-29T08:34:23;98.60;;;92.50;;
2035;SDS011;23642;42.658;23.350;2022-07-29T08:36:52;98.83;;;92.83;;
2035;SDS011;23642;42.658;23.350;2022-07-29T08:39:19;100.73;;;94.43;;
2035;SDS011;23642;42.658;23.350;2022-07-29T08:41:46;98.97;;;92.87;;
2035;SDS011;23642;42.658;23.350;2022-07-29T08:44:15;99.67;;;93.03;;
2035;SDS011;23642;42.658;23.350;2022-07-29T08:46:42;100.30;;;94.30;;
2035;SDS011;23642;42.658;23.350;2022-07-29T08:49:09;96.67;;;90.97;;
2035;SDS011;23642;42.658;23.350;2022-07-29T08:51:36;101.03;;;94.33;;
2035;SDS011;23642;42.658;23.350;2022-07-29T08:54:08;100.83;;;94.30;;
2035;SDS011;23642;42.658;23.350;2022-07-29T08:56:36;99.80;;;93.80;;
2035;SDS011;23642;42.658;23.350;2022-07-29T08:59:04;102.93;;;96.80;;
2035;SDS011;23642;42.658;23.350;2022-07-29T09:01:32;102.67;;;96.17;;
2035;SDS011;23642;42.658;23.350;2022-07-29T09:04:03;97.10;;;91.40;;
2035;SDS011;23642;42.658;23.350;2022-07-29T09:06:33;97.80;;;91.90;;
2035;SDS011;23642;42.658;23.350;2022-07-29T09:09:03;100.67;;;94.67;;
2035;SDS011;23642;42.658;23.350;2022-07-29T09:14:21;99.33;;;93.53;;
2035;SDS011;23642;42.658;23.350;2022-07-29T09:16:50;100.37;;;94.03;;
2035;SDS011;23642;42.658;23.350;2022-07-29T09:22:04;100.50;;;94.60;;
2035;SDS011;23642;42.658;23.350;2022-07-29T09:24:45;97.33;;;91.20;;
2035;SDS011;23642;42.658;23.350;2022-07-29T09:27:30;97.77;;;91.80;;
2035;SDS011;23642;42.658;23.350;2022-07-29T09:30:08;97.90;;;92.10;;
2035;SDS011;23642;42.658;23.350;2022-07-29T09:33:03;99.90;;;94.00;;
2035;SDS011;23642;42.658;23.350;2022-07-29T09:35:57;93.23;;;87.53;;
2035;SDS011;23642;42.658;23.350;2022-07-29T09:38:48;100.37;;;94.37;;
2035;SDS011;23642;42.658;23.350;2022-07-29T09:41:52;99.50;;;93.20;;
2035;SDS011;23642;42.658;23.350;2022-07-29T09:44:44;99.33;;;93.43;;
2035;SDS011;23642;42.658;23.350;2022-07-29T09:47:16;102.23;;;96.23;;
2035;SDS011;23642;42.658;23.350;2022-07-29T09:50:06;99.83;;;94.00;;
2035;SDS011;23642;42.658;23.350;2022-07-29T09:52:49;92.27;;;86.67;;
2035;SDS011;23642;42.658;23.350;2022-07-29T09:55:32;99.80;;;93.83;;
2035;SDS011;23642;42.658;23.350;2022-07-29T09:58:20;99.33;;;93.33;;
2035;SDS011;23642;42.658;23.350;2022-07-29T10:01:13;95.37;;;89.57;;
2035;SDS011;23642;42.658;23.350;2022-07-29T10:04:01;98.47;;;92.27;;
2035;SDS011;23642;42.658;23.350;2022-07-29T10:06:59;96.27;;;90.57;;
2035;SDS011;23642;42.658;23.350;2022-07-29T10:09:28;89.03;;;83.60;;
2035;SDS011;23642;42.658;23.350;2022-07-29T10:12:09;91.03;;;85.43;;
2035;SDS011;23642;42.658;23.350;2022-07-29T10:14:42;98.57;;;92.57;;
2035;SDS011;23642;42.658;23.350;2022-07-29T10:17:18;98.77;;;92.87;;
2035;SDS011;23642;42.658;23.350;2022-07-29T10:20:00;100.47;;;94.47;;
2035;SDS011;23642;42.658;23.350;2022-07-29T10:22:42;93.73;;;88.10;;
2035;SDS011;23642;42.658;23.350;2022-07-29T10:26:01;100.30;;;94.00;;
2035;SDS011;23642;42.658;23.350;2022-07-29T10:28:30;93.90;;;87.80;;
2035;SDS011;23642;42.658;23.350;2022-07-29T10:34:13;99.70;;;93.70;;
2035;SDS011;23642;42.658;23.350;2022-07-29T10:36:57;99.27;;;93.37;;
2035;SDS011;23642;42.658;23.350;2022-07-29T10:39:33;101.77;;;95.57;;
2035;SDS011;23642;42.658;23.350;2022-07-29T10:42:19;93.67;;;87.53;;
2035;SDS011;23642;42.658;23.350;2022-07-29T10:45:26;94.37;;;88.47;;
2035;SDS011;23642;42.658;23.350;2022-07-29T10:48:02;97.37;;;91.47;;
2035;SDS011;23642;42.658;23.350;2022-07-29T10:56:24;98.33;;;92.43;;
2035;SDS011;23642;42.658;23.350;2022-07-29T11:05:13;102.37;;;96.23;;
2035;SDS011;23642;42.658;23.350;2022-07-29T11:14:08;95.03;;;89.33;;
2035;SDS011;23642;42.658;23.350;2022-07-29T11:19:37;101.93;;;96.03;;
2035;SDS011;23642;42.658;23.350;2022-07-29T11:22:09;101.60;;;95.40;;
2035;SDS011;23642;42.658;23.350;2022-07-29T11:24:37;104.07;;;97.77;;
2035;SDS011;23642;42.658;23.350;2022-07-29T11:27:09;103.10;;;97.10;;
2035;SDS011;23642;42.658;23.350;2022-07-29T11:29:40;96.40;;;90.60;;
2035;SDS011;23642;42.658;23.350;2022-07-29T11:32:15;97.20;;;91.40;;
2035;SDS011;23642;42.658;23.350;2022-07-29T11:34:45;102.20;;;96.10;;
2035;SDS011;23642;42.658;23.350;2022-07-29T11:40:13;97.70;;;91.90;;
2035;SDS011;23642;42.658;23.350;2022-07-29T11:42:47;96.33;;;90.43;;
2035;SDS011;23642;42.658;23.350;2022-07-29T11:45:17;96.17;;;90.37;;
2035;SDS011;23642;42.658;23.350;2022-07-29T11:47:54;104.30;;;98.10;;
2035;SDS011;23642;42.658;23.350;2022-07-29T11:50:31;104.20;;;98.20;;
2035;SDS011;23642;42.658;23.350;2022-07-29T11:53:00;101.43;;;95.23;;
2035;SDS011;23642;42.658;23.350;2022-07-29T11:55:30;98.87;;;93.00;;
2035;SDS011;23642;42.658;23.350;2022-07-29T11:58:00;93.80;;;87.73;;
2035;SDS011;23642;42.658;23.350;2022-07-29T12:00:31;97.53;;;91.63;;
2035;SDS011;23642;42.658;23.350;2022-07-29T12:03:02;102.67;;;96.57;;
2035;SDS011;23642;42.658;23.350;2022-07-29T12:05:31;99.97;;;94.07;;
2035;SDS011;23642;42.658;23.350;2022-07-29T12:08:06;103.30;;;97.13;;
2035;SDS011;23642;42.658;23.350;2022-07-29T12:10:35;96.47;;;90.77;;
2035;SDS011;23642;42.658;23.350;2022-07-29T12:13:02;95.33;;;89.47;;
2035;SDS011;23642;42.658;23.350;2022-07-29T12:15:38;102.90;;;96.77;;
2035;SDS011;23642;42.658;23.350;2022-07-29T12:18:13;100.77;;;94.77;;
2035;SDS011;23642;42.658;23.350;2022-07-29T12:20:43;100.30;;;94.40;;
2035;SDS011;23642;42.658;23.350;2022-07-29T12:23:11;102.70;;;96.70;;
2035;SDS011;23642;42.658;23.350;2022-07-29T12:25:39;100.37;;;94.40;;
2035;SDS011;23642;42.658;23.350;2022-07-29T12:28:10;101.83;;;95.77;;
2035;SDS011;23642;42.658;23.350;2022-07-29T12:30:50;105.23;;;97.47;;
2035;SDS011;23642;42.658;23.350;2022-07-29T12:33:19;102.90;;;96.80;;
2035;SDS011;23642;42.658;23.350;2022-07-29T12:35:50;103.63;;;97.33;;
2035;SDS011;23642;42.658;23.350;2022-07-29T12:38:20;96.43;;;90.63;;
2035;SDS011;23642;42.658;23.350;2022-07-29T12:40:55;98.20;;;92.10;;
2035;SDS011;23642;42.658;23.350;2022-07-29T12:43:54;101.10;;;95.20;;
2035;SDS011;23642;42.658;23.350;2022-07-29T12:47:16;103.37;;;97.27;;
2035;SDS011;23642;42.658;23.350;2022-07-29T12:53:03;104.03;;;97.80;;
2035;SDS011;23642;42.658;23.350;2022-07-29T12:55:43;103.17;;;97.10;;
2035;SDS011;23642;42.658;23.350;2022-07-29T12:58:14;96.60;;;90.80;;
2035;SDS011;23642;42.658;23.350;2022-07-29T13:01:01;101.23;;;95.33;;
2035;SDS011;23642;42.658;23.350;2022-07-29T13:03:48;102.90;;;96.90;;
2035;SDS011;23642;42.658;23.350;2022-07-29T13:06:29;104.83;;;98.23;;
2035;SDS011;23642;42.658;23.350;2022-07-29T13:09:09;104.17;;;98.17;;
2035;SDS011;23642;42.658;23.350;2022-07-29T13:11:48;103.07;;;97.07;;
2035;SDS011;23642;42.658;23.350;2022-07-29T13:15:11;103.60;;;97.50;;
2035;SDS011;23642;42.658;23.350;2022-07-29T13:17:17;103.17;;;97.07;;
2035;SDS011;23642;42.658;23.350;2022-07-29T13:22:51;103.27;;;97.27;;
2035;SDS011;23642;42.658;23.350;2022-07-29T13:25:53;103.03;;;97.00;;
2035;SDS011;23642;42.658;23.350;2022-07-29T13:28:22;102.90;;;96.90;;
2035;SDS011;23642;42.658;23.350;2022-07-29T13:30:49;101.77;;;95.80;;
2035;SDS011;23642;42.658;23.350;2022-07-29T13:33:16;104.90;;;98.80;;
2035;SDS011;23642;42.658;23.350;2022-07-29T13:35:43;94.63;;;88.83;;
2035;SDS011;23642;42.658;23.350;2022-07-29T13:38:12;97.37;;;91.47;;
2035;SDS011;23642;42.658;23.350;2022-07-29T13:40:41;104.03;;;97.83;;
2035;SDS011;23642;42.658;23.350;2022-07-29T13:43:08;103.87;;;97.77;;
2035;SDS011;23642;42.658;23.350;2022-07-29T13:45:35;101.83;;;95.93;;
2035;SDS011;23642;42.658;23.350;2022-07-29T13:48:07;95.13;;;89.43;;
2035;SDS011;23642;42.658;23.350;2022-07-29T13:50:39;98.00;;;91.67;;
2035;SDS011;23642;42.658;23.350;2022-07-29T13:53:09;104.50;;;98.40;;
2035;SDS011;23642;42.658;23.350;2022-07-29T13:55:41;104.93;;;98.73;;
2035;SDS011;23642;42.658;23.350;2022-07-29T13:58:08;105.93;;;99.80;;
2035;SDS011;23642;42.658;23.350;2022-07-29T14:00:35;105.83;;;99.73;;
2035;SDS011;23642;42.658;23.350;2022-07-29T14:03:02;106.53;;;100.40;;
2035;SDS011;23642;42.658;23.350;2022-07-29T14:05:29;105.63;;;99.23;;
2035;SDS011;23642;42.658;23.350;2022-07-29T14:10:47;103.67;;;97.57;;
2035;SDS011;23642;42.658;23.350;2022-07-29T14:13:17;104.87;;;98.77;;
2035;SDS011;23642;42.658;23.350;2022-07-29T14:15:44;97.20;;;91.10;;
2035;SDS011;23642;42.658;23.350;2022-07-29T14:18:11;97.13;;;91.33;;
2035;SDS011;23642;42.658;23.350;2022-07-29T14:20:39;104.23;;;97.97;;
2035;SDS011;23642;42.658;23.350;2022-07-29T14:23:10;104.90;;;98.87;;
2035;SDS011;23642;42.658;23.350;2022-07-29T14:25:40;106.67;;;100.57;;
2035;SDS011;23642;42.658;23.350;2022-07-29T14:28:11;107.03;;;100.60;;
2035;SDS011;23642;42.658;23.350;2022-07-29T14:30:41;107.60;;;101.20;;
2035;SDS011;23642;42.658;23.350;2022-07-29T14:33:11;97.33;;;91.53;;
2035;SDS011;23642;42.658;23.350;2022-07-29T14:35:41;106.13;;;100.03;;
2035;SDS011;23642;42.658;23.350;2022-07-29T14:38:08;107.37;;;101.17;;
2035;SDS011;23642;42.658;23.350;2022-07-29T14:40:39;104.57;;;98.50;;
2035;SDS011;23642;42.658;23.350;2022-07-29T14:43:06;105.80;;;99.50;;
2035;SDS011;23642;42.658;23.350;2022-07-29T14:45:35;105.90;;;99.50;;
2035;SDS011;23642;42.658;23.350;2022-07-29T14:48:03;105.90;;;99.77;;
2035;SDS011;23642;42.658;23.350;2022-07-29T14:50:30;97.47;;;91.57;;
2035;SDS011;23642;42.658;23.350;2022-07-29T14:52:57;107.90;;;101.57;;
2035;SDS011;23642;42.658;23.350;2022-07-29T14:55:24;106.40;;;100.20;;
2035;SDS011;23642;42.658;23.350;2022-07-29T14:57:53;107.70;;;101.50;;
2035;SDS011;23642;42.658;23.350;2022-07-29T15:00:34;108.40;;;102.20;;
2035;SDS011;23642;42.658;23.350;2022-07-29T15:05:42;110.65;;;104.10;;
2035;SDS011;23642;42.658;23.350;2022-07-29T15:08:28;99.15;;;93.25;;
2035;SDS011;23642;42.658;23.350;2022-07-29T15:10:57;108.38;;;102.18;;
2035;SDS011;23642;42.658;23.350;2022-07-29T15:13:41;107.85;;;101.60;;
2035;SDS011;23642;42.658;23.350;2022-07-29T15:16:18;107.30;;;101.20;;
2035;SDS011;23642;42.658;23.350;2022-07-29T15:24:06;109.05;;;102.75;;
2035;SDS011;23642;42.658;23.350;2022-07-29T15:26:35;109.55;;;103.25;;
2035;SDS011;23642;42.658;23.350;2022-07-29T15:29:04;107.60;;;101.40;;
2035;SDS011;23642;42.658;23.350;2022-07-29T15:31:39;108.82;;;102.55;;
2035;SDS011;23642;42.658;23.350;2022-07-29T15:34:06;109.30;;;103.00;;
2035;SDS011;23642;42.658;23.350;2022-07-29T15:36:51;108.63;;;102.32;;
2035;SDS011;23642;42.658;23.350;2022-07-29T15:39:25;99.38;;;93.47;;
2035;SDS011;23642;42.658;23.350;2022-07-29T15:45:12;99.38;;;93.38;;
2035;SDS011;23642;42.658;23.350;2022-07-29T15:58:51;96.80;;;91.00;;
2035;SDS011;23642;42.658;23.350;2022-07-29T16:01:23;98.53;;;92.38;;
2035;SDS011;23642;42.658;23.350;2022-07-29T16:04:00;97.35;;;91.43;;
2035;SDS011;23642;42.658;23.350;2022-07-29T16:06:30;98.60;;;92.70;;
2035;SDS011;23642;42.658;23.350;2022-07-29T16:09:14;97.60;;;91.50;;
2035;SDS011;23642;42.658;23.350;2022-07-29T16:11:42;94.30;;;88.33;;
2035;SDS011;23642;42.658;23.350;2022-07-29T16:14:15;96.80;;;90.47;;
2035;SDS011;23642;42.658;23.350;2022-07-29T16:16:42;96.10;;;90.20;;
2035;SDS011;23642;42.658;23.350;2022-07-29T16:19:13;95.73;;;89.60;;
2035;SDS011;23642;42.658;23.350;2022-07-29T16:21:40;95.63;;;89.77;;
2035;SDS011;23642;42.658;23.350;2022-07-29T16:24:08;95.37;;;89.67;;
2035;SDS011;23642;42.658;23.350;2022-07-29T16:26:35;94.83;;;88.90;;
2035;SDS011;23642;42.658;23.350;2022-07-29T16:29:05;92.73;;;87.03;;